Eastern Asia — 3FQP2 — position and weather

sailwx.info

Track history (hours):
 
Tides and Currents Weather Stations Pressure Air Temp Water Temp Dewpoint Dewpoint Depression Visibility Wind Speed Wind Dir Waves Ship Positions

Eastern Asia

Last reported at 2014-Nov-15 08:08 UTC. Time now 2014-Nov-23 11:15 UTC.
Position N 46°12' W 125°29'.
Warning: this ship's position is 8 days out of date.

Length 175 m; draft 10 m.

Type: Cargo ship. MMSI: 355530000.

Date/timePositionNaut miles runAvg speedWind from/ knotsBaromVisibWave heightAir tempDewpointWater temp
2014-Nov-15 08:08N 46°12' W 125°29'711.9
2014-Nov-15 07:33N 46°12' W 125°19'1211.6
2014-Nov-15 06:33N 46°12' W 125°02'1111.0
2014-Nov-15 05:33N 46°12' W 124°46'1111.0
2014-Nov-15 04:33N 46°12' W 124°30'1111.3
2014-Nov-15 03:33N 46°12' W 124°14'1010.5
2014-Nov-15 02:33N 46°14' W 123°59'9 8.8
2014-Nov-15 01:33N 46°13' W 123°47'1111.4
2014-Nov-15 00:33N 46°16' W 123°31'10 9.9
2014-Nov-14 23:33N 46°09' W 123°21'1212.4
2014-Nov-14 22:33N 46°09' W 123°03'5 4.9
2014-Nov-14 21:33N 46°07' W 122°58'0 0.0
2014-Nov-14 20:33N 46°07' W 122°58'0 0.0
2014-Nov-14 19:30N 46°07' W 122°58'0 0.0
2014-Nov-14 18:30N 46°07' W 122°58'0 0.0
2014-Nov-14 17:33N 46°07' W 122°58'0 0.0
2014-Nov-14 16:33N 46°07' W 122°58'0 0.0
2014-Nov-14 15:33N 46°07' W 122°58'0 0.0
2014-Nov-14 14:33N 46°07' W 122°58'0 0.0
2014-Nov-14 12:27N 46°07' W 122°58'0 0.0
2014-Nov-14 11:33N 46°07' W 122°58'0 0.0
2014-Nov-14 10:27N 46°07' W 122°58'0 0.0
2014-Nov-14 09:33N 46°07' W 122°58'0 0.0
2014-Nov-14 08:33N 46°07' W 122°58'0 0.0
2014-Nov-14 07:30N 46°07' W 122°58'0 0.0
2014-Nov-14 06:30N 46°07' W 122°58'0 0.0
2014-Nov-14 05:33N 46°07' W 122°58'0 0.0
2014-Nov-14 04:33N 46°07' W 122°58'0 0.0
2014-Nov-14 03:33N 46°07' W 122°58'0 0.0
2014-Nov-14 02:33N 46°07' W 122°58'0 0.0
2014-Nov-14 01:33N 46°07' W 122°58'0 0.0
2014-Nov-14 00:33N 46°07' W 122°58'0 0.0
2014-Nov-13 23:33N 46°07' W 122°58'0 0.0
2014-Nov-13 22:27N 46°07' W 122°58'0 0.0
2014-Nov-13 21:33N 46°07' W 122°58'0 0.0
2014-Nov-13 20:30N 46°07' W 122°58'0 0.0
2014-Nov-13 19:33N 46°07' W 122°58'0 0.0
2014-Nov-13 18:30N 46°07' W 122°58'0 0.0
2014-Nov-13 17:33N 46°07' W 122°58'0 0.0
2014-Nov-13 16:33N 46°07' W 122°58'0 0.0
2014-Nov-13 15:30N 46°07' W 122°58'0 0.0
2014-Nov-13 14:30N 46°07' W 122°58'0 0.0
2014-Nov-13 13:33N 46°07' W 122°58'0 0.0
2014-Nov-13 12:33N 46°07' W 122°58'0 0.0
2014-Nov-13 11:27N 46°07' W 122°58'0 0.0
2014-Nov-13 10:33N 46°07' W 122°58'0 0.0
2014-Nov-13 09:33N 46°07' W 122°58'0 0.0
2014-Nov-13 08:33N 46°07' W 122°58'0 0.0
2014-Nov-13 07:30N 46°07' W 122°58'0 0.0
2014-Nov-13 06:33N 46°07' W 122°58'0 0.0
2014-Nov-13 05:33N 46°07' W 122°58'0 0.0
2014-Nov-13 04:33N 46°07' W 122°58'0 0.0
2014-Nov-13 03:33N 46°07' W 122°58'0 0.0
2014-Nov-13 02:33N 46°07' W 122°58'0 0.0
2014-Nov-13 01:33N 46°07' W 122°58'0 0.0
2014-Nov-13 00:33N 46°07' W 122°58'0 0.0
2014-Nov-12 23:21N 46°07' W 122°58'0 0.0
2014-Nov-12 22:33N 46°07' W 122°58'0 0.0
2014-Nov-12 21:30N 46°07' W 122°58'0 0.0
2014-Nov-12 20:33N 46°07' W 122°58'0 0.0
2014-Nov-12 19:30N 46°07' W 122°58'0 0.0
2014-Nov-12 18:33N 46°07' W 122°58'0 0.0
2014-Nov-12 17:33N 46°07' W 122°58'0 0.0
2014-Nov-12 16:33N 46°07' W 122°58'0 0.0
2014-Nov-12 15:33N 46°07' W 122°58'0 0.0
2014-Nov-12 14:33N 46°07' W 122°58'0 0.0
2014-Nov-12 13:27N 46°07' W 122°58'0 0.0
2014-Nov-12 12:33N 46°07' W 122°58'0 0.2
2014-Nov-12 11:33N 46°07' W 122°58'7 7.1
2014-Nov-12 10:33N 46°11' W 123°06'1110.5
2014-Nov-12 09:33N 46°09' W 123°21'9 9.4
2014-Nov-12 08:34N 46°16' W 123°29'1110.6
2014-Nov-12 07:33N 46°14' W 123°44'8 8.3
2014-Nov-12 06:34N 46°12' W 123°55'8 7.9
2014-Nov-12 05:34N 46°15' W 124°06'9 9.1
2014-Nov-12 04:34N 46°13' W 124°19'9 9.3
2014-Nov-12 03:34N 46°21' W 124°26'1010.2
2014-Nov-12 02:33N 46°30' W 124°34'10 9.7
2014-Nov-12 01:33N 46°38' W 124°41'8 8.5
2014-Nov-12 00:33N 46°45' W 124°48'9 9.1
2014-Nov-11 23:34N 46°53' W 124°55'9210.2
2014-Nov-11 14:29N 48°24' W 125°09'1110.8
2014-Nov-11 13:27N 48°31' W 124°55'4611.9
2014-Nov-11 09:33N 48°17' W 123°48'1312.9
2014-Nov-11 08:33N 48°17' W 123°29'1110.8
2014-Nov-11 07:33N 48°24' W 123°16'1414.3
2014-Nov-11 06:34N 48°38' W 123°15'1414.0
2014-Nov-11 05:34N 48°48' W 123°00'1615.7
2014-Nov-11 04:34N 48°59' W 123°18'1515.0
2014-Nov-11 03:34N 49°09' W 123°36'1212.0
2014-Nov-11 02:33N 49°11' W 123°54'2 0.3
2014-Nov-10 21:22N 49°10' W 123°55'0 0.0
2014-Nov-10 20:34N 49°10' W 123°55'0 0.0
2014-Nov-10 19:34N 49°10' W 123°55'0 0.0
2014-Nov-10 18:31N 49°10' W 123°55'0 0.0
2014-Nov-10 17:34N 49°10' W 123°55'0 0.0
2014-Nov-10 16:34N 49°10' W 123°55'0 0.0
2014-Nov-10 15:34N 49°10' W 123°55'0 0.0
2014-Nov-10 14:34N 49°10' W 123°55'0 0.0
2014-Nov-10 13:28N 49°10' W 123°55'0 0.0
2014-Nov-10 12:28N 49°10' W 123°55'0 0.0
2014-Nov-10 11:34N 49°10' W 123°55'0 0.0
2014-Nov-10 10:28N 49°10' W 123°55'0 0.0
2014-Nov-10 09:22N 49°10' W 123°55'0 0.0
2014-Nov-10 08:13N 49°10' W 123°55'0 0.0
2014-Nov-10 07:25N 49°10' W 123°55'0 0.0
2014-Nov-10 06:34N 49°10' W 123°55'0 0.0
2014-Nov-10 05:34N 49°10' W 123°55'0 0.0
2014-Nov-10 04:34N 49°10' W 123°55'0 0.0
2014-Nov-10 03:34N 49°10' W 123°55'0 0.0
2014-Nov-10 02:34N 49°10' W 123°55'0 0.0
2014-Nov-10 01:34N 49°10' W 123°55'0 0.0
2014-Nov-10 00:34N 49°10' W 123°55'0 0.0
2014-Nov-09 23:16N 49°10' W 123°55'0 0.0
2014-Nov-09 22:34N 49°10' W 123°55'0 0.0
2014-Nov-09 21:28N 49°10' W 123°55'0 0.0
2014-Nov-09 20:34N 49°10' W 123°55'0 0.0
2014-Nov-09 19:34N 49°10' W 123°55'0 0.0
2014-Nov-09 18:34N 49°10' W 123°55'0 0.0
2014-Nov-09 17:34N 49°10' W 123°55'0 0.0
2014-Nov-09 16:28N 49°10' W 123°55'0 0.0
2014-Nov-09 15:34N 49°10' W 123°55'0 0.0
2014-Nov-09 14:34N 49°10' W 123°55'0 0.0
2014-Nov-09 13:34N 49°10' W 123°55'0 0.0
2014-Nov-09 12:28N 49°10' W 123°55'0 0.0
2014-Nov-09 11:28N 49°10' W 123°55'0 0.0
2014-Nov-09 10:04N 49°10' W 123°55'0 0.0
2014-Nov-09 09:34N 49°10' W 123°55'0 0.0
2014-Nov-09 05:34N 49°10' W 123°55'0 0.0
2014-Nov-09 04:34N 49°10' W 123°55'0 0.0
2014-Nov-09 03:34N 49°10' W 123°55'0 0.0
2014-Nov-09 02:28N 49°10' W 123°55'0 0.0
2014-Nov-09 01:34N 49°10' W 123°55'0 0.0
2014-Nov-09 00:34N 49°10' W 123°55'0 0.0
2014-Nov-08 23:34N 49°10' W 123°55'0 0.0
2014-Nov-08 22:28N 49°10' W 123°55'0 0.0
2014-Nov-08 21:34N 49°10' W 123°55'0 0.0
2014-Nov-08 20:28N 49°10' W 123°55'0 0.0
2014-Nov-08 19:28N 49°10' W 123°55'0 0.0
2014-Nov-08 18:28N 49°10' W 123°55'0 0.0
2014-Nov-08 17:34N 49°10' W 123°55'0 0.0
2014-Nov-08 10:34N 49°10' W 123°55'0 0.0
2014-Nov-08 09:34N 49°10' W 123°55'0 0.0
2014-Nov-08 08:28N 49°10' W 123°55'0 0.0
2014-Nov-08 07:34N 49°10' W 123°55'0 0.0
2014-Nov-08 06:28N 49°10' W 123°55'0 0.0
2014-Nov-08 05:34N 49°10' W 123°55'0 0.0
2014-Nov-08 04:28N 49°10' W 123°55'0 0.0
2014-Nov-08 03:34N 49°10' W 123°55'0 0.0
2014-Nov-08 02:22N 49°10' W 123°55'0 0.0
2014-Nov-08 01:28N 49°10' W 123°55'0 0.0
2014-Nov-08 00:34N 49°10' W 123°55'0 0.0
2014-Nov-07 23:33N 49°10' W 123°55'4 4.0
2014-Nov-07 22:33N 49°13' W 123°51'1414.1
2014-Nov-07 21:34N 49°08' W 123°31'1514.9
2014-Nov-07 20:33N 48°59' W 123°13'1414.1
2014-Nov-07 19:34N 48°48' W 122°59'1313.0
2014-Nov-07 18:34N 48°40' W 123°15'1413.6
2014-Nov-07 17:33N 48°26' W 123°10'1010.4
2014-Nov-07 16:33N 48°21' W 123°23'9 8.5
2014-Nov-07 15:33N 48°14' W 123°31'1211.5
2014-Nov-07 14:33N 48°14' W 123°48'1413.4
2014-Nov-07 13:31N 48°18' W 124°08'4013.3
2014-Nov-07 10:31N 48°28' W 125°06'1212.6
2014-Nov-07 09:33N 48°28' W 125°24'1111.3
2014-Nov-07 08:33N 48°28' W 125°41'1111.1
2014-Nov-07 07:33N 48°29' W 125°58'1211.4
2014-Nov-07 06:30N 48°29' W 126°16'  
Track history (hours):
 
Tides and Currents Weather Stations Pressure Air Temp Water Temp Dewpoint Dewpoint Depression Visibility Wind Speed Wind Dir Waves Ship Positions

Eastern Asia

Last reported at 2014-Nov-15 08:08 UTC. Time now 2014-Nov-23 11:15 UTC.
Position N 46°12' W 125°29'.
Warning: this ship's position is 8 days out of date.

Length 175 m; draft 10 m.

Type: Cargo ship. MMSI: 355530000.

Date/timePositionNaut miles runAvg speedWind from/ knotsBaromVisibWave heightAir tempDewpointWater temp
2014-Nov-15 08:08N 46°12' W 125°29'711.9
2014-Nov-15 07:33N 46°12' W 125°19'1211.6
2014-Nov-15 06:33N 46°12' W 125°02'1111.0
2014-Nov-15 05:33N 46°12' W 124°46'1111.0
2014-Nov-15 04:33N 46°12' W 124°30'1111.3
2014-Nov-15 03:33N 46°12' W 124°14'1010.5
2014-Nov-15 02:33N 46°14' W 123°59'9 8.8
2014-Nov-15 01:33N 46°13' W 123°47'1111.4
2014-Nov-15 00:33N 46°16' W 123°31'10 9.9
2014-Nov-14 23:33N 46°09' W 123°21'1212.4
2014-Nov-14 22:33N 46°09' W 123°03'5 4.9
2014-Nov-14 21:33N 46°07' W 122°58'0 0.0
2014-Nov-14 20:33N 46°07' W 122°58'0 0.0
2014-Nov-14 19:30N 46°07' W 122°58'0 0.0
2014-Nov-14 18:30N 46°07' W 122°58'0 0.0
2014-Nov-14 17:33N 46°07' W 122°58'0 0.0
2014-Nov-14 16:33N 46°07' W 122°58'0 0.0
2014-Nov-14 15:33N 46°07' W 122°58'0 0.0
2014-Nov-14 14:33N 46°07' W 122°58'0 0.0
2014-Nov-14 12:27N 46°07' W 122°58'0 0.0
2014-Nov-14 11:33N 46°07' W 122°58'0 0.0
2014-Nov-14 10:27N 46°07' W 122°58'0 0.0
2014-Nov-14 09:33N 46°07' W 122°58'0 0.0
2014-Nov-14 08:33N 46°07' W 122°58'0 0.0
2014-Nov-14 07:30N 46°07' W 122°58'0 0.0
2014-Nov-14 06:30N 46°07' W 122°58'0 0.0
2014-Nov-14 05:33N 46°07' W 122°58'0 0.0
2014-Nov-14 04:33N 46°07' W 122°58'0 0.0
2014-Nov-14 03:33N 46°07' W 122°58'0 0.0
2014-Nov-14 02:33N 46°07' W 122°58'0 0.0
2014-Nov-14 01:33N 46°07' W 122°58'0 0.0
2014-Nov-14 00:33N 46°07' W 122°58'0 0.0
2014-Nov-13 23:33N 46°07' W 122°58'0 0.0
2014-Nov-13 22:27N 46°07' W 122°58'0 0.0
2014-Nov-13 21:33N 46°07' W 122°58'0 0.0
2014-Nov-13 20:30N 46°07' W 122°58'0 0.0
2014-Nov-13 19:33N 46°07' W 122°58'0 0.0
2014-Nov-13 18:30N 46°07' W 122°58'0 0.0
2014-Nov-13 17:33N 46°07' W 122°58'0 0.0
2014-Nov-13 16:33N 46°07' W 122°58'0 0.0
2014-Nov-13 15:30N 46°07' W 122°58'0 0.0
2014-Nov-13 14:30N 46°07' W 122°58'0 0.0
2014-Nov-13 13:33N 46°07' W 122°58'0 0.0
2014-Nov-13 12:33N 46°07' W 122°58'0 0.0
2014-Nov-13 11:27N 46°07' W 122°58'0 0.0
2014-Nov-13 10:33N 46°07' W 122°58'0 0.0
2014-Nov-13 09:33N 46°07' W 122°58'0 0.0
2014-Nov-13 08:33N 46°07' W 122°58'0 0.0
2014-Nov-13 07:30N 46°07' W 122°58'0 0.0
2014-Nov-13 06:33N 46°07' W 122°58'0 0.0
2014-Nov-13 05:33N 46°07' W 122°58'0 0.0
2014-Nov-13 04:33N 46°07' W 122°58'0 0.0
2014-Nov-13 03:33N 46°07' W 122°58'0 0.0
2014-Nov-13 02:33N 46°07' W 122°58'0 0.0
2014-Nov-13 01:33N 46°07' W 122°58'0 0.0
2014-Nov-13 00:33N 46°07' W 122°58'0 0.0
2014-Nov-12 23:21N 46°07' W 122°58'0 0.0
2014-Nov-12 22:33N 46°07' W 122°58'0 0.0
2014-Nov-12 21:30N 46°07' W 122°58'0 0.0
2014-Nov-12 20:33N 46°07' W 122°58'0 0.0
2014-Nov-12 19:30N 46°07' W 122°58'0 0.0
2014-Nov-12 18:33N 46°07' W 122°58'0 0.0
2014-Nov-12 17:33N 46°07' W 122°58'0 0.0
2014-Nov-12 16:33N 46°07' W 122°58'0 0.0
2014-Nov-12 15:33N 46°07' W 122°58'0 0.0
2014-Nov-12 14:33N 46°07' W 122°58'0 0.0
2014-Nov-12 13:27N 46°07' W 122°58'0 0.0
2014-Nov-12 12:33N 46°07' W 122°58'0 0.2
2014-Nov-12 11:33N 46°07' W 122°58'7 7.1
2014-Nov-12 10:33N 46°11' W 123°06'1110.5
2014-Nov-12 09:33N 46°09' W 123°21'9 9.4
2014-Nov-12 08:34N 46°16' W 123°29'1110.6
2014-Nov-12 07:33N 46°14' W 123°44'8 8.3
2014-Nov-12 06:34N 46°12' W 123°55'8 7.9
2014-Nov-12 05:34N 46°15' W 124°06'9 9.1
2014-Nov-12 04:34N 46°13' W 124°19'9 9.3
2014-Nov-12 03:34N 46°21' W 124°26'1010.2
2014-Nov-12 02:33N 46°30' W 124°34'10 9.7
2014-Nov-12 01:33N 46°38' W 124°41'8 8.5
2014-Nov-12 00:33N 46°45' W 124°48'9 9.1
2014-Nov-11 23:34N 46°53' W 124°55'9210.2
2014-Nov-11 14:29N 48°24' W 125°09'1110.8
2014-Nov-11 13:27N 48°31' W 124°55'4611.9
2014-Nov-11 09:33N 48°17' W 123°48'1312.9
2014-Nov-11 08:33N 48°17' W 123°29'1110.8
2014-Nov-11 07:33N 48°24' W 123°16'1414.3
2014-Nov-11 06:34N 48°38' W 123°15'1414.0
2014-Nov-11 05:34N 48°48' W 123°00'1615.7
2014-Nov-11 04:34N 48°59' W 123°18'1515.0
2014-Nov-11 03:34N 49°09' W 123°36'1212.0
2014-Nov-11 02:33N 49°11' W 123°54'2 0.3
2014-Nov-10 21:22N 49°10' W 123°55'0 0.0
2014-Nov-10 20:34N 49°10' W 123°55'0 0.0
2014-Nov-10 19:34N 49°10' W 123°55'0 0.0
2014-Nov-10 18:31N 49°10' W 123°55'0 0.0
2014-Nov-10 17:34N 49°10' W 123°55'0 0.0
2014-Nov-10 16:34N 49°10' W 123°55'0 0.0
2014-Nov-10 15:34N 49°10' W 123°55'0 0.0
2014-Nov-10 14:34N 49°10' W 123°55'0 0.0
2014-Nov-10 13:28N 49°10' W 123°55'0 0.0
2014-Nov-10 12:28N 49°10' W 123°55'0 0.0
2014-Nov-10 11:34N 49°10' W 123°55'0 0.0
2014-Nov-10 10:28N 49°10' W 123°55'0 0.0
2014-Nov-10 09:22N 49°10' W 123°55'0 0.0
2014-Nov-10 08:13N 49°10' W 123°55'0 0.0
2014-Nov-10 07:25N 49°10' W 123°55'0 0.0
2014-Nov-10 06:34N 49°10' W 123°55'0 0.0
2014-Nov-10 05:34N 49°10' W 123°55'0 0.0
2014-Nov-10 04:34N 49°10' W 123°55'0 0.0
2014-Nov-10 03:34N 49°10' W 123°55'0 0.0
2014-Nov-10 02:34N 49°10' W 123°55'0 0.0
2014-Nov-10 01:34N 49°10' W 123°55'0 0.0
2014-Nov-10 00:34N 49°10' W 123°55'0 0.0
2014-Nov-09 23:16N 49°10' W 123°55'0 0.0
2014-Nov-09 22:34N 49°10' W 123°55'0 0.0
2014-Nov-09 21:28N 49°10' W 123°55'0 0.0
2014-Nov-09 20:34N 49°10' W 123°55'0 0.0
2014-Nov-09 19:34N 49°10' W 123°55'0 0.0
2014-Nov-09 18:34N 49°10' W 123°55'0 0.0
2014-Nov-09 17:34N 49°10' W 123°55'0 0.0
2014-Nov-09 16:28N 49°10' W 123°55'0 0.0
2014-Nov-09 15:34N 49°10' W 123°55'0 0.0
2014-Nov-09 14:34N 49°10' W 123°55'0 0.0
2014-Nov-09 13:34N 49°10' W 123°55'0 0.0
2014-Nov-09 12:28N 49°10' W 123°55'0 0.0
2014-Nov-09 11:28N 49°10' W 123°55'0 0.0
2014-Nov-09 10:04N 49°10' W 123°55'0 0.0
2014-Nov-09 09:34N 49°10' W 123°55'0 0.0
2014-Nov-09 05:34N 49°10' W 123°55'0 0.0
2014-Nov-09 04:34N 49°10' W 123°55'0 0.0
2014-Nov-09 03:34N 49°10' W 123°55'0 0.0
2014-Nov-09 02:28N 49°10' W 123°55'0 0.0
2014-Nov-09 01:34N 49°10' W 123°55'0 0.0
2014-Nov-09 00:34N 49°10' W 123°55'0 0.0
2014-Nov-08 23:34N 49°10' W 123°55'0 0.0
2014-Nov-08 22:28N 49°10' W 123°55'0 0.0
2014-Nov-08 21:34N 49°10' W 123°55'0 0.0
2014-Nov-08 20:28N 49°10' W 123°55'0 0.0
2014-Nov-08 19:28N 49°10' W 123°55'0 0.0
2014-Nov-08 18:28N 49°10' W 123°55'0 0.0
2014-Nov-08 17:34N 49°10' W 123°55'0 0.0
2014-Nov-08 10:34N 49°10' W 123°55'0 0.0
2014-Nov-08 09:34N 49°10' W 123°55'0 0.0
2014-Nov-08 08:28N 49°10' W 123°55'0 0.0
2014-Nov-08 07:34N 49°10' W 123°55'0 0.0
2014-Nov-08 06:28N 49°10' W 123°55'0 0.0
2014-Nov-08 05:34N 49°10' W 123°55'0 0.0
2014-Nov-08 04:28N 49°10' W 123°55'0 0.0
2014-Nov-08 03:34N 49°10' W 123°55'0 0.0
2014-Nov-08 02:22N 49°10' W 123°55'0 0.0
2014-Nov-08 01:28N 49°10' W 123°55'0 0.0
2014-Nov-08 00:34N 49°10' W 123°55'0 0.0
2014-Nov-07 23:33N 49°10' W 123°55'4 4.0
2014-Nov-07 22:33N 49°13' W 123°51'1414.1
2014-Nov-07 21:34N 49°08' W 123°31'1514.9
2014-Nov-07 20:33N 48°59' W 123°13'1414.1
2014-Nov-07 19:34N 48°48' W 122°59'1313.0
2014-Nov-07 18:34N 48°40' W 123°15'1413.6
2014-Nov-07 17:33N 48°26' W 123°10'1010.4
2014-Nov-07 16:33N 48°21' W 123°23'9 8.5
2014-Nov-07 15:33N 48°14' W 123°31'1211.5
2014-Nov-07 14:33N 48°14' W 123°48'1413.4
2014-Nov-07 13:31N 48°18' W 124°08'4013.3
2014-Nov-07 10:31N 48°28' W 125°06'1212.6
2014-Nov-07 09:33N 48°28' W 125°24'1111.3
2014-Nov-07 08:33N 48°28' W 125°41'1111.1
2014-Nov-07 07:33N 48°29' W 125°58'1211.4
2014-Nov-07 06:30N 48°29' W 126°16'  

Dump ship's entire track history